Aérodrome :
LOGIN :

S'inscrire | Disclaimer

   EN    FR    IT 

 










Légende :    VFR   VFR Marginal   IFR   IFR Intensif   IFR Très Intensif
Visi : 
Plafond : 
>= 8 km
>= 3000ft
5 à 8 km
1000 à 3000 ft
1500m à 5 km
500 à 1000 ft
800 à 1500m
200 à 500 ft
< 800m
< 200 ft
Symboles :   Orages  Brouillard  Fortes neiges  Fortes précipitations  Vent > 20 kt
SIGMETs :   Divers  Orages  Givrage  Turbulence  Onde Orograph.  Cendres Volcan.






- Altitude de l'aérodrome : 408 ft
- Code IATA : KWG


UKDR - Lozuvatka

DERNIER METAR :
  • 221300Z 25008MPS 9999 OVC026 04/M01 Q1010 R18/09//65 NOSIG

METARs EXPIRÉS :
  • 221230Z 25010MPS 9999 SCT020 04/M01 Q1010 R18/09//65 NOSIG
  • 221200Z 24008MPS 9999 OVC016 04/M00 Q1011 R18/09//65 NOSIG
  • 221130Z 25008MPS 9999 OVC017 04/M01 Q1012 R18/09//65 NOSIG
  • 221100Z 26008MPS 9999 OVC016 03/M01 Q1013 R18/09//65 NOSIG
  • 221030Z 26006MPS 240V300 9999 OVC015 03/M01 Q1013 R18/09//65 NOSIG

TAF COR TAF UKDR
Valide du 22 à 12h jusqu'au 23 à 12h UTC


221107Z 2212/2312 27008G14MPS 9999 OVC011 TX03/2212Z TNM00/2304Z
TEMPO 2214/2224 2100 -SHRASN BKN005 BKN015CB
BECMG 2300/2302 33009G15MPS
TEMPO 2302/2306 1100 -SHSN BR BKN003 BKN015CB



MET'MAP, la Météo Aéronautique d'un coup d'oeil ! - Copyright ORBIFLY Décembre 2007 - Disclaimer

ORBIFLY MET'MAP TEAM :

Programmation & Développement : Alexandra Zaïnal
Sur une idée originale de : Baudouin d'Aumeries
Assistance à la programmation : Marc-Olivier Méhu
Soutien technique & logistique : Manuel Goepfert

Contact : metmap@orbifly.com




SOURCES & CREDITS :

   NOAA